sensor_id;sensor_type;location;lat;lon;timestamp;P1;durP1;ratioP1;P2;durP2;ratioP2
20383;SDS011;46458;50.966;7.002;2022-07-03T00:01:33;6.22;;;1.88;;
20383;SDS011;46458;50.966;7.002;2022-07-03T00:03:59;2.95;;;2.00;;
20383;SDS011;46458;50.966;7.002;2022-07-03T00:06:25;2.28;;;1.60;;
20383;SDS011;46458;50.966;7.002;2022-07-03T00:08:52;2.63;;;1.77;;
20383;SDS011;46458;50.966;7.002;2022-07-03T00:11:18;4.72;;;2.13;;
20383;SDS011;46458;50.966;7.002;2022-07-03T00:13:46;4.10;;;1.88;;
20383;SDS011;46458;50.966;7.002;2022-07-03T00:16:12;5.03;;;1.95;;
20383;SDS011;46458;50.966;7.002;2022-07-03T00:18:38;2.45;;;1.75;;
20383;SDS011;46458;50.966;7.002;2022-07-03T00:21:04;4.03;;;2.53;;
20383;SDS011;46458;50.966;7.002;2022-07-03T00:23:45;2.90;;;1.85;;
20383;SDS011;46458;50.966;7.002;2022-07-03T00:26:15;2.90;;;1.88;;
20383;SDS011;46458;50.966;7.002;2022-07-03T00:28:45;4.03;;;1.75;;
20383;SDS011;46458;50.966;7.002;2022-07-03T00:31:12;3.60;;;1.88;;
20383;SDS011;46458;50.966;7.002;2022-07-03T00:33:38;5.40;;;1.98;;
20383;SDS011;46458;50.966;7.002;2022-07-03T00:36:06;3.78;;;2.08;;
20383;SDS011;46458;50.966;7.002;2022-07-03T00:38:32;1.83;;;1.58;;
20383;SDS011;46458;50.966;7.002;2022-07-03T00:40:58;2.83;;;1.83;;
20383;SDS011;46458;50.966;7.002;2022-07-03T00:43:26;3.53;;;1.92;;
20383;SDS011;46458;50.966;7.002;2022-07-03T00:45:51;5.05;;;2.25;;
20383;SDS011;46458;50.966;7.002;2022-07-03T00:48:19;3.25;;;2.08;;
20383;SDS011;46458;50.966;7.002;2022-07-03T00:50:47;3.60;;;1.98;;
20383;SDS011;46458;50.966;7.002;2022-07-03T00:53:17;6.68;;;2.47;;
20383;SDS011;46458;50.966;7.002;2022-07-03T00:55:53;3.08;;;1.88;;
20383;SDS011;46458;50.966;7.002;2022-07-03T00:58:20;3.35;;;2.28;;
20383;SDS011;46458;50.966;7.002;2022-07-03T01:00:46;3.25;;;2.22;;
20383;SDS011;46458;50.966;7.002;2022-07-03T01:03:16;4.53;;;2.20;;
20383;SDS011;46458;50.966;7.002;2022-07-03T01:05:43;4.22;;;2.35;;
20383;SDS011;46458;50.966;7.002;2022-07-03T01:14:10;4.95;;;2.00;;
20383;SDS011;46458;50.966;7.002;2022-07-03T01:16:57;2.45;;;1.77;;
20383;SDS011;46458;50.966;7.002;2022-07-03T01:19:40;4.18;;;2.10;;
20383;SDS011;46458;50.966;7.002;2022-07-03T01:30:31;4.07;;;1.90;;
20383;SDS011;46458;50.966;7.002;2022-07-03T01:32:59;3.70;;;2.15;;
20383;SDS011;46458;50.966;7.002;2022-07-03T01:35:33;3.55;;;2.50;;
20383;SDS011;46458;50.966;7.002;2022-07-03T01:38:10;3.00;;;2.22;;
20383;SDS011;46458;50.966;7.002;2022-07-03T01:40:38;4.35;;;2.20;;
20383;SDS011;46458;50.966;7.002;2022-07-03T01:43:07;3.50;;;2.20;;
20383;SDS011;46458;50.966;7.002;2022-07-03T01:45:37;3.05;;;2.17;;
20383;SDS011;46458;50.966;7.002;2022-07-03T01:48:06;3.95;;;2.38;;
20383;SDS011;46458;50.966;7.002;2022-07-03T01:50:34;3.58;;;2.20;;
20383;SDS011;46458;50.966;7.002;2022-07-03T01:53:06;3.80;;;2.47;;
20383;SDS011;46458;50.966;7.002;2022-07-03T01:55:33;4.38;;;2.58;;
20383;SDS011;46458;50.966;7.002;2022-07-03T01:58:02;4.90;;;2.30;;
20383;SDS011;46458;50.966;7.002;2022-07-03T02:00:28;3.75;;;2.40;;
20383;SDS011;46458;50.966;7.002;2022-07-03T02:02:59;4.63;;;2.38;;
20383;SDS011;46458;50.966;7.002;2022-07-03T02:10:42;4.18;;;2.80;;
20383;SDS011;46458;50.966;7.002;2022-07-03T02:13:16;4.00;;;2.53;;
20383;SDS011;46458;50.966;7.002;2022-07-03T02:15:44;6.45;;;2.70;;
20383;SDS011;46458;50.966;7.002;2022-07-03T02:18:20;4.97;;;2.90;;
20383;SDS011;46458;50.966;7.002;2022-07-03T02:20:56;3.47;;;2.53;;
20383;SDS011;46458;50.966;7.002;2022-07-03T02:23:31;5.90;;;2.60;;
20383;SDS011;46458;50.966;7.002;2022-07-03T02:25:58;6.72;;;2.83;;
20383;SDS011;46458;50.966;7.002;2022-07-03T02:28:34;6.13;;;2.63;;
20383;SDS011;46458;50.966;7.002;2022-07-03T02:31:09;4.63;;;2.47;;
20383;SDS011;46458;50.966;7.002;2022-07-03T02:33:38;4.53;;;2.47;;
20383;SDS011;46458;50.966;7.002;2022-07-03T02:36:05;5.70;;;2.47;;
20383;SDS011;46458;50.966;7.002;2022-07-03T02:38:36;2.70;;;2.25;;
20383;SDS011;46458;50.966;7.002;2022-07-03T02:51:51;3.33;;;2.50;;
20383;SDS011;46458;50.966;7.002;2022-07-03T02:54:43;4.72;;;2.58;;
20383;SDS011;46458;50.966;7.002;2022-07-03T02:57:17;5.18;;;2.78;;
20383;SDS011;46458;50.966;7.002;2022-07-03T02:59:56;4.53;;;2.95;;
20383;SDS011;46458;50.966;7.002;2022-07-03T03:02:36;4.15;;;2.88;;
20383;SDS011;46458;50.966;7.002;2022-07-03T03:05:21;3.13;;;2.60;;
20383;SDS011;46458;50.966;7.002;2022-07-03T03:10:40;3.47;;;2.60;;
20383;SDS011;46458;50.966;7.002;2022-07-03T03:13:08;3.08;;;2.58;;
20383;SDS011;46458;50.966;7.002;2022-07-03T03:15:36;3.70;;;2.92;;
20383;SDS011;46458;50.966;7.002;2022-07-03T03:18:06;4.45;;;2.90;;
20383;SDS011;46458;50.966;7.002;2022-07-03T03:20:36;3.63;;;2.80;;
20383;SDS011;46458;50.966;7.002;2022-07-03T03:23:46;10.70;;;2.20;;
20383;SDS011;46458;50.966;7.002;2022-07-03T03:26:00;4.57;;;2.70;;
20383;SDS011;46458;50.966;7.002;2022-07-03T03:28:26;4.32;;;2.70;;
20383;SDS011;46458;50.966;7.002;2022-07-03T03:30:52;3.20;;;2.40;;
20383;SDS011;46458;50.966;7.002;2022-07-03T03:33:18;3.60;;;2.30;;
20383;SDS011;46458;50.966;7.002;2022-07-03T03:35:44;3.75;;;2.38;;
20383;SDS011;46458;50.966;7.002;2022-07-03T03:38:10;4.15;;;3.00;;
20383;SDS011;46458;50.966;7.002;2022-07-03T03:40:39;3.13;;;2.50;;
20383;SDS011;46458;50.966;7.002;2022-07-03T03:43:05;3.30;;;2.10;;
20383;SDS011;46458;50.966;7.002;2022-07-03T03:45:30;5.57;;;2.35;;
20383;SDS011;46458;50.966;7.002;2022-07-03T03:47:56;4.20;;;2.55;;
20383;SDS011;46458;50.966;7.002;2022-07-03T03:50:22;4.57;;;2.70;;
20383;SDS011;46458;50.966;7.002;2022-07-03T03:52:49;2.45;;;2.13;;
20383;SDS011;46458;50.966;7.002;2022-07-03T03:55:15;4.38;;;2.28;;
20383;SDS011;46458;50.966;7.002;2022-07-03T03:57:40;3.15;;;2.30;;
20383;SDS011;46458;50.966;7.002;2022-07-03T04:00:06;4.57;;;2.38;;
20383;SDS011;46458;50.966;7.002;2022-07-03T04:02:33;3.22;;;2.20;;
20383;SDS011;46458;50.966;7.002;2022-07-03T04:04:58;4.97;;;2.40;;
20383;SDS011;46458;50.966;7.002;2022-07-03T04:07:24;3.63;;;2.50;;
20383;SDS011;46458;50.966;7.002;2022-07-03T04:09:50;4.82;;;2.90;;
20383;SDS011;46458;50.966;7.002;2022-07-03T04:12:15;2.95;;;2.25;;
20383;SDS011;46458;50.966;7.002;2022-07-03T04:14:41;3.90;;;2.28;;
20383;SDS011;46458;50.966;7.002;2022-07-03T04:17:07;4.00;;;2.67;;
20383;SDS011;46458;50.966;7.002;2022-07-03T04:19:32;3.72;;;2.58;;
20383;SDS011;46458;50.966;7.002;2022-07-03T04:21:58;5.53;;;2.50;;
20383;SDS011;46458;50.966;7.002;2022-07-03T04:24:24;3.83;;;2.55;;
20383;SDS011;46458;50.966;7.002;2022-07-03T04:26:52;6.18;;;3.00;;
20383;SDS011;46458;50.966;7.002;2022-07-03T04:29:18;4.23;;;2.73;;
20383;SDS011;46458;50.966;7.002;2022-07-03T04:31:46;2.88;;;2.47;;
20383;SDS011;46458;50.966;7.002;2022-07-03T04:34:12;3.05;;;2.50;;
20383;SDS011;46458;50.966;7.002;2022-07-03T04:36:38;3.60;;;2.30;;
20383;SDS011;46458;50.966;7.002;2022-07-03T04:39:03;3.70;;;2.30;;
20383;SDS011;46458;50.966;7.002;2022-07-03T04:41:31;5.65;;;3.00;;
20383;SDS011;46458;50.966;7.002;2022-07-03T04:43:57;4.82;;;2.72;;
20383;SDS011;46458;50.966;7.002;2022-07-03T04:46:22;3.63;;;2.60;;
20383;SDS011;46458;50.966;7.002;2022-07-03T04:48:48;2.80;;;2.40;;
20383;SDS011;46458;50.966;7.002;2022-07-03T04:51:14;4.00;;;2.42;;
20383;SDS011;46458;50.966;7.002;2022-07-03T04:53:39;6.38;;;3.00;;
20383;SDS011;46458;50.966;7.002;2022-07-03T04:56:08;4.13;;;2.60;;
20383;SDS011;46458;50.966;7.002;2022-07-03T04:58:33;5.90;;;2.80;;
20383;SDS011;46458;50.966;7.002;2022-07-03T05:00:59;5.10;;;2.85;;
20383;SDS011;46458;50.966;7.002;2022-07-03T05:03:24;5.20;;;2.88;;
20383;SDS011;46458;50.966;7.002;2022-07-03T05:05:50;4.03;;;2.53;;
20383;SDS011;46458;50.966;7.002;2022-07-03T05:08:17;3.13;;;2.60;;
20383;SDS011;46458;50.966;7.002;2022-07-03T05:10:45;3.72;;;2.80;;
20383;SDS011;46458;50.966;7.002;2022-07-03T05:13:10;3.08;;;2.78;;
20383;SDS011;46458;50.966;7.002;2022-07-03T05:15:36;3.53;;;2.70;;
20383;SDS011;46458;50.966;7.002;2022-07-03T05:18:02;2.90;;;2.60;;
20383;SDS011;46458;50.966;7.002;2022-07-03T05:20:27;6.05;;;3.30;;
20383;SDS011;46458;50.966;7.002;2022-07-03T05:22:57;3.67;;;3.05;;
20383;SDS011;46458;50.966;7.002;2022-07-03T05:25:23;4.67;;;3.17;;
20383;SDS011;46458;50.966;7.002;2022-07-03T05:27:50;6.72;;;2.78;;
20383;SDS011;46458;50.966;7.002;2022-07-03T05:30:17;4.57;;;2.90;;
20383;SDS011;46458;50.966;7.002;2022-07-03T05:32:44;2.80;;;2.60;;
20383;SDS011;46458;50.966;7.002;2022-07-03T05:35:10;3.80;;;2.63;;
20383;SDS011;46458;50.966;7.002;2022-07-03T05:37:35;3.67;;;2.80;;
20383;SDS011;46458;50.966;7.002;2022-07-03T05:40:01;3.60;;;3.08;;
20383;SDS011;46458;50.966;7.002;2022-07-03T05:42:28;5.38;;;2.90;;
20383;SDS011;46458;50.966;7.002;2022-07-03T05:44:54;4.53;;;2.50;;
20383;SDS011;46458;50.966;7.002;2022-07-03T05:47:19;5.22;;;3.00;;
20383;SDS011;46458;50.966;7.002;2022-07-03T05:49:45;4.35;;;2.88;;
20383;SDS011;46458;50.966;7.002;2022-07-03T05:52:10;6.00;;;2.95;;
20383;SDS011;46458;50.966;7.002;2022-07-03T05:54:36;5.82;;;3.05;;
20383;SDS011;46458;50.966;7.002;2022-07-03T05:57:01;6.20;;;2.88;;
20383;SDS011;46458;50.966;7.002;2022-07-03T05:59:27;3.70;;;2.70;;
20383;SDS011;46458;50.966;7.002;2022-07-03T06:01:53;3.85;;;3.20;;
20383;SDS011;46458;50.966;7.002;2022-07-03T06:04:18;3.92;;;3.08;;
20383;SDS011;46458;50.966;7.002;2022-07-03T06:06:44;4.95;;;2.58;;
20383;SDS011;46458;50.966;7.002;2022-07-03T06:09:09;3.33;;;2.65;;
20383;SDS011;46458;50.966;7.002;2022-07-03T06:11:35;4.70;;;3.28;;
20383;SDS011;46458;50.966;7.002;2022-07-03T06:14:00;5.15;;;3.60;;
20383;SDS011;46458;50.966;7.002;2022-07-03T06:16:26;19.88;;;12.48;;
20383;SDS011;46458;50.966;7.002;2022-07-03T06:18:58;9.07;;;5.88;;
20383;SDS011;46458;50.966;7.002;2022-07-03T06:21:24;4.95;;;2.80;;
20383;SDS011;46458;50.966;7.002;2022-07-03T06:23:49;3.35;;;2.30;;
20383;SDS011;46458;50.966;7.002;2022-07-03T06:26:15;3.15;;;2.20;;
20383;SDS011;46458;50.966;7.002;2022-07-03T06:28:41;5.57;;;2.95;;
20383;SDS011;46458;50.966;7.002;2022-07-03T06:31:07;3.08;;;2.08;;
20383;SDS011;46458;50.966;7.002;2022-07-03T06:33:36;4.20;;;2.30;;
20383;SDS011;46458;50.966;7.002;2022-07-03T06:36:02;4.00;;;2.20;;
20383;SDS011;46458;50.966;7.002;2022-07-03T06:38:27;4.13;;;1.88;;
20383;SDS011;46458;50.966;7.002;2022-07-03T06:40:53;3.90;;;2.03;;
20383;SDS011;46458;50.966;7.002;2022-07-03T06:43:18;7.72;;;2.20;;
20383;SDS011;46458;50.966;7.002;2022-07-03T06:45:44;3.78;;;2.25;;
20383;SDS011;46458;50.966;7.002;2022-07-03T06:48:10;3.67;;;2.25;;
20383;SDS011;46458;50.966;7.002;2022-07-03T06:50:35;3.00;;;2.17;;
20383;SDS011;46458;50.966;7.002;2022-07-03T06:53:04;3.97;;;2.40;;
20383;SDS011;46458;50.966;7.002;2022-07-03T06:55:29;4.32;;;2.03;;
20383;SDS011;46458;50.966;7.002;2022-07-03T06:57:55;3.00;;;2.20;;
20383;SDS011;46458;50.966;7.002;2022-07-03T07:00:20;4.63;;;2.33;;
20383;SDS011;46458;50.966;7.002;2022-07-03T07:02:46;3.45;;;2.10;;
20383;SDS011;46458;50.966;7.002;2022-07-03T07:05:12;6.75;;;2.20;;
20383;SDS011;46458;50.966;7.002;2022-07-03T07:07:37;6.13;;;2.40;;
20383;SDS011;46458;50.966;7.002;2022-07-03T07:10:03;4.55;;;2.58;;
20383;SDS011;46458;50.966;7.002;2022-07-03T07:12:29;3.03;;;1.85;;
20383;SDS011;46458;50.966;7.002;2022-07-03T07:14:55;9.85;;;7.10;;
20383;SDS011;46458;50.966;7.002;2022-07-03T07:17:21;5.55;;;2.60;;
20383;SDS011;46458;50.966;7.002;2022-07-03T07:19:46;4.63;;;2.53;;
20383;SDS011;46458;50.966;7.002;2022-07-03T07:22:12;5.18;;;2.72;;
20383;SDS011;46458;50.966;7.002;2022-07-03T07:24:37;4.25;;;2.67;;
20383;SDS011;46458;50.966;7.002;2022-07-03T07:27:03;5.18;;;2.60;;
20383;SDS011;46458;50.966;7.002;2022-07-03T07:29:29;2.65;;;2.45;;
20383;SDS011;46458;50.966;7.002;2022-07-03T07:31:55;4.13;;;2.65;;
20383;SDS011;46458;50.966;7.002;2022-07-03T07:34:20;2.58;;;2.22;;
20383;SDS011;46458;50.966;7.002;2022-07-03T07:36:48;4.93;;;2.05;;
20383;SDS011;46458;50.966;7.002;2022-07-03T07:39:14;4.78;;;2.30;;
20383;SDS011;46458;50.966;7.002;2022-07-03T07:41:40;5.78;;;2.33;;
20383;SDS011;46458;50.966;7.002;2022-07-03T07:44:05;5.00;;;2.40;;
20383;SDS011;46458;50.966;7.002;2022-07-03T07:46:31;5.22;;;2.45;;
20383;SDS011;46458;50.966;7.002;2022-07-03T07:48:57;6.35;;;2.30;;
20383;SDS011;46458;50.966;7.002;2022-07-03T07:51:22;3.92;;;2.72;;
20383;SDS011;46458;50.966;7.002;2022-07-03T07:53:50;4.80;;;2.65;;
20383;SDS011;46458;50.966;7.002;2022-07-03T07:56:17;8.20;;;5.03;;
20383;SDS011;46458;50.966;7.002;2022-07-03T07:58:43;6.78;;;3.85;;
20383;SDS011;46458;50.966;7.002;2022-07-03T08:01:08;6.22;;;3.00;;
20383;SDS011;46458;50.966;7.002;2022-07-03T08:03:53;5.07;;;3.72;;
20383;SDS011;46458;50.966;7.002;2022-07-03T08:06:36;4.13;;;2.83;;
20383;SDS011;46458;50.966;7.002;2022-07-03T08:09:02;2.80;;;2.20;;
20383;SDS011;46458;50.966;7.002;2022-07-03T08:11:28;4.93;;;2.90;;
20383;SDS011;46458;50.966;7.002;2022-07-03T08:13:56;3.95;;;2.30;;
20383;SDS011;46458;50.966;7.002;2022-07-03T08:16:22;2.63;;;2.22;;
20383;SDS011;46458;50.966;7.002;2022-07-03T08:18:47;4.88;;;2.92;;
20383;SDS011;46458;50.966;7.002;2022-07-03T08:21:17;8.02;;;3.72;;
20383;SDS011;46458;50.966;7.002;2022-07-03T08:23:43;7.95;;;2.97;;
20383;SDS011;46458;50.966;7.002;2022-07-03T08:26:08;5.72;;;2.17;;
20383;SDS011;46458;50.966;7.002;2022-07-03T08:28:34;4.97;;;2.92;;
20383;SDS011;46458;50.966;7.002;2022-07-03T08:30:59;3.83;;;2.28;;
20383;SDS011;46458;50.966;7.002;2022-07-03T08:33:25;3.08;;;2.28;;
20383;SDS011;46458;50.966;7.002;2022-07-03T08:35:51;3.95;;;2.10;;
20383;SDS011;46458;50.966;7.002;2022-07-03T08:38:19;5.75;;;2.83;;
20383;SDS011;46458;50.966;7.002;2022-07-03T08:40:47;4.18;;;2.35;;
20383;SDS011;46458;50.966;7.002;2022-07-03T08:43:18;3.72;;;2.13;;
20383;SDS011;46458;50.966;7.002;2022-07-03T08:45:45;3.88;;;2.28;;
20383;SDS011;46458;50.966;7.002;2022-07-03T08:48:11;3.28;;;2.78;;
20383;SDS011;46458;50.966;7.002;2022-07-03T08:50:37;4.18;;;2.47;;
20383;SDS011;46458;50.966;7.002;2022-07-03T08:53:04;4.38;;;2.85;;
20383;SDS011;46458;50.966;7.002;2022-07-03T08:55:32;4.95;;;2.30;;
20383;SDS011;46458;50.966;7.002;2022-07-03T08:57:58;3.75;;;3.13;;
20383;SDS011;46458;50.966;7.002;2022-07-03T09:00:26;5.75;;;2.35;;
20383;SDS011;46458;50.966;7.002;2022-07-03T09:02:55;4.55;;;2.28;;
20383;SDS011;46458;50.966;7.002;2022-07-03T09:05:24;5.63;;;2.53;;
20383;SDS011;46458;50.966;7.002;2022-07-03T09:07:49;2.72;;;1.98;;
20383;SDS011;46458;50.966;7.002;2022-07-03T09:10:16;4.22;;;2.30;;
20383;SDS011;46458;50.966;7.002;2022-07-03T09:12:46;3.35;;;1.92;;
20383;SDS011;46458;50.966;7.002;2022-07-03T09:15:14;4.03;;;2.03;;
20383;SDS011;46458;50.966;7.002;2022-07-03T09:17:40;3.58;;;1.90;;
20383;SDS011;46458;50.966;7.002;2022-07-03T09:20:28;3.13;;;2.20;;
20383;SDS011;46458;50.966;7.002;2022-07-03T09:22:57;3.83;;;2.20;;
20383;SDS011;46458;50.966;7.002;2022-07-03T09:25:58;3.58;;;2.50;;
20383;SDS011;46458;50.966;7.002;2022-07-03T09:28:42;2.92;;;1.70;;
20383;SDS011;46458;50.966;7.002;2022-07-03T09:31:12;3.97;;;1.88;;
20383;SDS011;46458;50.966;7.002;2022-07-03T09:36:46;3.67;;;2.33;;
20383;SDS011;46458;50.966;7.002;2022-07-03T09:47:16;4.07;;;1.75;;
20383;SDS011;46458;50.966;7.002;2022-07-03T09:52:26;3.88;;;2.10;;
20383;SDS011;46458;50.966;7.002;2022-07-03T09:57:19;4.60;;;1.58;;
20383;SDS011;46458;50.966;7.002;2022-07-03T09:59:45;2.70;;;1.67;;
20383;SDS011;46458;50.966;7.002;2022-07-03T10:02:11;1.95;;;1.67;;
20383;SDS011;46458;50.966;7.002;2022-07-03T10:04:36;3.97;;;1.85;;
20383;SDS011;46458;50.966;7.002;2022-07-03T10:07:02;2.67;;;1.75;;
20383;SDS011;46458;50.966;7.002;2022-07-03T10:09:29;2.03;;;1.30;;
20383;SDS011;46458;50.966;7.002;2022-07-03T10:12:01;1.77;;;1.58;;
20383;SDS011;46458;50.966;7.002;2022-07-03T10:14:29;2.15;;;1.58;;
20383;SDS011;46458;50.966;7.002;2022-07-03T10:16:56;2.47;;;1.58;;
20383;SDS011;46458;50.966;7.002;2022-07-03T10:19:27;2.92;;;1.52;;
20383;SDS011;46458;50.966;7.002;2022-07-03T10:22:02;2.67;;;1.60;;
20383;SDS011;46458;50.966;7.002;2022-07-03T10:24:34;2.92;;;1.52;;
20383;SDS011;46458;50.966;7.002;2022-07-03T10:27:01;3.15;;;1.48;;
20383;SDS011;46458;50.966;7.002;2022-07-03T10:29:27;3.20;;;1.60;;
20383;SDS011;46458;50.966;7.002;2022-07-03T10:31:53;2.65;;;1.60;;
20383;SDS011;46458;50.966;7.002;2022-07-03T10:34:20;2.25;;;1.33;;
20383;SDS011;46458;50.966;7.002;2022-07-03T10:36:48;3.03;;;1.45;;
20383;SDS011;46458;50.966;7.002;2022-07-03T10:39:23;2.22;;;1.40;;
20383;SDS011;46458;50.966;7.002;2022-07-03T10:42:13;2.63;;;1.10;;
20383;SDS011;46458;50.966;7.002;2022-07-03T10:45:13;2.40;;;1.40;;
20383;SDS011;46458;50.966;7.002;2022-07-03T10:47:43;2.03;;;1.35;;
20383;SDS011;46458;50.966;7.002;2022-07-03T10:50:19;4.60;;;1.50;;
20383;SDS011;46458;50.966;7.002;2022-07-03T10:52:46;3.03;;;1.65;;
20383;SDS011;46458;50.966;7.002;2022-07-03T10:55:13;3.67;;;1.30;;
20383;SDS011;46458;50.966;7.002;2022-07-03T10:57:40;3.33;;;1.63;;
20383;SDS011;46458;50.966;7.002;2022-07-03T11:00:14;3.08;;;1.60;;
20383;SDS011;46458;50.966;7.002;2022-07-03T11:02:42;2.63;;;1.35;;
20383;SDS011;46458;50.966;7.002;2022-07-03T11:05:15;3.63;;;1.98;;
20383;SDS011;46458;50.966;7.002;2022-07-03T11:12:54;2.72;;;1.40;;
20383;SDS011;46458;50.966;7.002;2022-07-03T11:20:46;3.97;;;1.70;;
20383;SDS011;46458;50.966;7.002;2022-07-03T11:23:41;2.05;;;1.50;;
20383;SDS011;46458;50.966;7.002;2022-07-03T11:26:29;2.97;;;1.80;;
20383;SDS011;46458;50.966;7.002;2022-07-03T11:28:54;5.78;;;1.60;;
20383;SDS011;46458;50.966;7.002;2022-07-03T11:31:20;2.90;;;1.60;;
20383;SDS011;46458;50.966;7.002;2022-07-03T11:38:45;3.05;;;2.10;;
20383;SDS011;46458;50.966;7.002;2022-07-03T11:41:13;4.32;;;2.08;;
20383;SDS011;46458;50.966;7.002;2022-07-03T11:43:46;5.68;;;2.20;;
20383;SDS011;46458;50.966;7.002;2022-07-03T11:46:16;3.60;;;2.50;;
20383;SDS011;46458;50.966;7.002;2022-07-03T11:48:43;4.25;;;1.67;;
20383;SDS011;46458;50.966;7.002;2022-07-03T11:51:08;3.65;;;1.80;;
20383;SDS011;46458;50.966;7.002;2022-07-03T11:53:35;2.08;;;1.70;;
20383;SDS011;46458;50.966;7.002;2022-07-03T11:56:03;3.25;;;2.08;;
20383;SDS011;46458;50.966;7.002;2022-07-03T12:01:10;3.10;;;1.80;;
20383;SDS011;46458;50.966;7.002;2022-07-03T12:09:14;3.10;;;1.50;;
20383;SDS011;46458;50.966;7.002;2022-07-03T12:11:59;3.08;;;1.40;;
20383;SDS011;46458;50.966;7.002;2022-07-03T12:14:36;1.80;;;1.52;;
20383;SDS011;46458;50.966;7.002;2022-07-03T12:17:04;2.65;;;1.50;;
20383;SDS011;46458;50.966;7.002;2022-07-03T12:19:30;3.13;;;1.60;;
20383;SDS011;46458;50.966;7.002;2022-07-03T12:21:56;2.03;;;1.52;;
20383;SDS011;46458;50.966;7.002;2022-07-03T12:24:22;3.05;;;1.60;;
20383;SDS011;46458;50.966;7.002;2022-07-03T12:26:48;3.42;;;1.55;;
20383;SDS011;46458;50.966;7.002;2022-07-03T12:29:14;2.53;;;1.60;;
20383;SDS011;46458;50.966;7.002;2022-07-03T12:31:41;2.22;;;1.10;;
20383;SDS011;46458;50.966;7.002;2022-07-03T12:34:10;6.07;;;1.50;;
20383;SDS011;46458;50.966;7.002;2022-07-03T12:36:36;2.15;;;1.35;;
20383;SDS011;46458;50.966;7.002;2022-07-03T12:39:02;2.70;;;1.40;;
20383;SDS011;46458;50.966;7.002;2022-07-03T12:41:28;5.47;;;3.10;;
20383;SDS011;46458;50.966;7.002;2022-07-03T12:43:55;2.20;;;1.63;;
20383;SDS011;46458;50.966;7.002;2022-07-03T12:46:26;15.23;;;11.98;;
20383;SDS011;46458;50.966;7.002;2022-07-03T12:49:00;13.88;;;12.38;;
20383;SDS011;46458;50.966;7.002;2022-07-03T12:51:41;15.52;;;13.75;;
20383;SDS011;46458;50.966;7.002;2022-07-03T12:54:08;3.83;;;3.28;;
20383;SDS011;46458;50.966;7.002;2022-07-03T12:56:35;6.32;;;4.72;;
20383;SDS011;46458;50.966;7.002;2022-07-03T12:59:01;1.95;;;1.20;;
20383;SDS011;46458;50.966;7.002;2022-07-03T13:01:43;1.83;;;1.40;;
20383;SDS011;46458;50.966;7.002;2022-07-03T13:07:05;1.58;;;1.30;;
20383;SDS011;46458;50.966;7.002;2022-07-03T13:09:33;2.00;;;1.13;;
20383;SDS011;46458;50.966;7.002;2022-07-03T13:11:59;1.75;;;1.40;;
20383;SDS011;46458;50.966;7.002;2022-07-03T13:14:28;3.70;;;1.23;;
20383;SDS011;46458;50.966;7.002;2022-07-03T13:16:55;1.80;;;1.30;;
20383;SDS011;46458;50.966;7.002;2022-07-03T13:19:24;3.55;;;1.27;;
20383;SDS011;46458;50.966;7.002;2022-07-03T13:21:52;1.20;;;1.10;;
20383;SDS011;46458;50.966;7.002;2022-07-03T13:24:19;3.03;;;1.63;;
20383;SDS011;46458;50.966;7.002;2022-07-03T13:26:45;1.30;;;1.20;;
20383;SDS011;46458;50.966;7.002;2022-07-03T13:29:12;1.40;;;1.10;;
20383;SDS011;46458;50.966;7.002;2022-07-03T13:31:37;1.67;;;1.10;;
20383;SDS011;46458;50.966;7.002;2022-07-03T13:34:03;3.80;;;1.50;;
20383;SDS011;46458;50.966;7.002;2022-07-03T13:36:29;1.40;;;1.17;;
20383;SDS011;46458;50.966;7.002;2022-07-03T13:38:56;4.43;;;1.55;;
20383;SDS011;46458;50.966;7.002;2022-07-03T13:41:22;2.38;;;1.20;;
20383;SDS011;46458;50.966;7.002;2022-07-03T13:43:49;6.05;;;1.80;;
20383;SDS011;46458;50.966;7.002;2022-07-03T13:46:17;4.85;;;1.05;;
20383;SDS011;46458;50.966;7.002;2022-07-03T13:48:46;2.63;;;1.27;;
20383;SDS011;46458;50.966;7.002;2022-07-03T13:51:12;1.45;;;1.20;;
20383;SDS011;46458;50.966;7.002;2022-07-03T13:53:38;2.13;;;1.17;;
20383;SDS011;46458;50.966;7.002;2022-07-03T13:56:03;1.58;;;1.20;;
20383;SDS011;46458;50.966;7.002;2022-07-03T13:58:29;4.97;;;1.38;;
20383;SDS011;46458;50.966;7.002;2022-07-03T14:00:55;3.67;;;1.33;;
20383;SDS011;46458;50.966;7.002;2022-07-03T14:03:21;2.50;;;1.10;;
20383;SDS011;46458;50.966;7.002;2022-07-03T14:05:47;1.95;;;1.40;;
20383;SDS011;46458;50.966;7.002;2022-07-03T14:08:16;1.30;;;1.08;;
20383;SDS011;46458;50.966;7.002;2022-07-03T14:10:43;4.25;;;1.38;;
20383;SDS011;46458;50.966;7.002;2022-07-03T14:13:08;2.22;;;1.02;;
20383;SDS011;46458;50.966;7.002;2022-07-03T14:15:34;3.70;;;1.20;;
20383;SDS011;46458;50.966;7.002;2022-07-03T14:18:00;1.70;;;1.20;;
20383;SDS011;46458;50.966;7.002;2022-07-03T14:20:26;2.60;;;1.38;;
20383;SDS011;46458;50.966;7.002;2022-07-03T14:22:52;2.22;;;1.20;;
20383;SDS011;46458;50.966;7.002;2022-07-03T14:25:18;3.55;;;1.10;;
20383;SDS011;46458;50.966;7.002;2022-07-03T14:27:44;2.50;;;1.15;;
20383;SDS011;46458;50.966;7.002;2022-07-03T14:30:28;1.90;;;1.30;;
20383;SDS011;46458;50.966;7.002;2022-07-03T14:33:12;1.17;;;1.00;;
20383;SDS011;46458;50.966;7.002;2022-07-03T14:35:37;2.90;;;1.20;;
20383;SDS011;46458;50.966;7.002;2022-07-03T14:38:03;3.08;;;1.30;;
20383;SDS011;46458;50.966;7.002;2022-07-03T14:40:29;3.25;;;1.13;;
20383;SDS011;46458;50.966;7.002;2022-07-03T14:42:55;2.30;;;0.95;;
20383;SDS011;46458;50.966;7.002;2022-07-03T14:45:22;1.38;;;1.00;;
20383;SDS011;46458;50.966;7.002;2022-07-03T14:47:47;2.00;;;0.95;;
20383;SDS011;46458;50.966;7.002;2022-07-03T14:50:13;1.60;;;1.10;;
20383;SDS011;46458;50.966;7.002;2022-07-03T14:52:39;1.60;;;0.88;;
20383;SDS011;46458;50.966;7.002;2022-07-03T14:55:04;3.17;;;1.20;;
20383;SDS011;46458;50.966;7.002;2022-07-03T14:57:31;2.97;;;1.13;;
20383;SDS011;46458;50.966;7.002;2022-07-03T15:00:04;1.48;;;1.10;;
20383;SDS011;46458;50.966;7.002;2022-07-03T15:05:24;3.30;;;1.00;;
20383;SDS011;46458;50.966;7.002;2022-07-03T15:10:33;5.80;;;1.67;;
20383;SDS011;46458;50.966;7.002;2022-07-03T15:13:00;2.70;;;1.40;;
20383;SDS011;46458;50.966;7.002;2022-07-03T15:15:29;2.90;;;1.40;;
20383;SDS011;46458;50.966;7.002;2022-07-03T15:17:55;3.03;;;1.85;;
20383;SDS011;46458;50.966;7.002;2022-07-03T15:20:22;4.88;;;2.47;;
20383;SDS011;46458;50.966;7.002;2022-07-03T15:22:50;4.65;;;1.80;;
20383;SDS011;46458;50.966;7.002;2022-07-03T15:25:18;2.30;;;1.33;;
20383;SDS011;46458;50.966;7.002;2022-07-03T15:27:51;4.75;;;1.35;;
20383;SDS011;46458;50.966;7.002;2022-07-03T15:30:17;3.25;;;1.60;;
20383;SDS011;46458;50.966;7.002;2022-07-03T15:32:47;3.22;;;2.17;;
20383;SDS011;46458;50.966;7.002;2022-07-03T15:35:14;3.15;;;1.23;;
20383;SDS011;46458;50.966;7.002;2022-07-03T15:40:11;2.53;;;1.63;;
20383;SDS011;46458;50.966;7.002;2022-07-03T15:42:51;3.42;;;2.00;;
20383;SDS011;46458;50.966;7.002;2022-07-03T15:45:44;2.75;;;1.63;;
20383;SDS011;46458;50.966;7.002;2022-07-03T15:48:34;2.97;;;1.40;;
20383;SDS011;46458;50.966;7.002;2022-07-03T15:51:22;1.63;;;0.90;;
20383;SDS011;46458;50.966;7.002;2022-07-03T15:53:58;2.55;;;1.20;;
20383;SDS011;46458;50.966;7.002;2022-07-03T15:56:27;3.42;;;1.00;;
20383;SDS011;46458;50.966;7.002;2022-07-03T15:59:04;4.85;;;1.27;;
20383;SDS011;46458;50.966;7.002;2022-07-03T16:01:34;3.50;;;1.20;;
20383;SDS011;46458;50.966;7.002;2022-07-03T16:04:29;4.72;;;1.02;;
20383;SDS011;46458;50.966;7.002;2022-07-03T16:07:00;2.05;;;1.30;;
20383;SDS011;46458;50.966;7.002;2022-07-03T16:09:29;3.13;;;1.30;;
20383;SDS011;46458;50.966;7.002;2022-07-03T16:11:55;2.08;;;1.42;;
20383;SDS011;46458;50.966;7.002;2022-07-03T16:14:20;4.38;;;1.30;;
20383;SDS011;46458;50.966;7.002;2022-07-03T16:16:47;1.88;;;1.15;;
20383;SDS011;46458;50.966;7.002;2022-07-03T16:19:13;2.83;;;0.93;;
20383;SDS011;46458;50.966;7.002;2022-07-03T16:21:39;2.08;;;1.10;;